Uraga Maru — JD2163 — position and weather

sailwx.info

Track history (hours):
 
Tides and Currents Weather Stations Pressure Air Temp Water Temp Dewpoint Dewpoint Depression Visibility Wind Speed Wind Dir Waves Ship Positions

Uraga Maru

Last reported at 2014-Jul-30 14:31 UTC. Time now 2014-Jul-30 15:17 UTC.
Position N 35°17' E 139°41'.

Length 40 m; draft 2.8 m.

Type: Tug. MMSI: 431101119.

Date/timePositionNaut miles runAvg speedWind from/ knotsBaromVisibWave heightAir tempDewpointWater temp
2014-Jul-30 14:31N 35°17' E 139°41'0 0.0
2014-Jul-30 13:33N 35°17' E 139°41'0 0.0
2014-Jul-30 12:33N 35°17' E 139°41'0 0.0
2014-Jul-30 11:33N 35°17' E 139°41'0 0.0
2014-Jul-30 10:33N 35°17' E 139°41'0 0.0
2014-Jul-30 09:33N 35°17' E 139°41'0 0.0
2014-Jul-30 08:33N 35°17' E 139°41'0 0.0
2014-Jul-30 07:33N 35°17' E 139°41'0 0.0
2014-Jul-30 06:33N 35°17' E 139°41'5 5.5
2014-Jul-30 05:33N 35°14' E 139°46'9 9.0
2014-Jul-30 04:34N 35°22' E 139°42'1312.7
2014-Jul-30 03:33N 35°30' E 139°54'1 1.4
2014-Jul-30 02:33N 35°31' E 139°56'0 0.2
2014-Jul-30 01:33N 35°30' E 139°55'8 8.2
2014-Jul-30 00:33N 35°25' E 139°47'1211.7
2014-Jul-29 23:33N 35°14' E 139°47'3 3.2
2014-Jul-29 22:33N 35°13' E 139°43'0 0.1
2014-Jul-29 21:33N 35°13' E 139°43'7 6.7
2014-Jul-29 20:33N 35°20' E 139°42'2 2.1
2014-Jul-29 19:33N 35°18' E 139°42'1 1.2
2014-Jul-29 18:25N 35°17' E 139°41'0 0.0
2014-Jul-29 17:23N 35°17' E 139°41'0 0.0
2014-Jul-29 16:33N 35°17' E 139°41'0 0.0
2014-Jul-29 15:25N 35°17' E 139°41'0 0.0
2014-Jul-29 14:32N 35°17' E 139°41'0 0.0
2014-Jul-29 13:09N 35°17' E 139°41'0 0.1
2014-Jul-29 12:29N 35°17' E 139°41'0 0.0
2014-Jul-29 11:33N 35°17' E 139°41'0 0.0
2014-Jul-29 10:29N 35°17' E 139°41'0 0.0
2014-Jul-29 09:28N 35°17' E 139°41'0 0.0
2014-Jul-29 08:29N 35°17' E 139°41'0 0.1
2014-Jul-29 07:33N 35°17' E 139°41'0 0.0
2014-Jul-29 06:32N 35°17' E 139°41'3 2.9
2014-Jul-29 05:33N 35°20' E 139°41'4 4.1
2014-Jul-29 04:34N 35°23' E 139°39'6 6.4
2014-Jul-29 03:33N 35°17' E 139°41'1 1.2
2014-Jul-29 02:33N 35°18' E 139°42'7 6.5
2014-Jul-29 01:33N 35°12' E 139°46'1110.9
2014-Jul-29 00:33N 35°22' E 139°42'6 5.8
2014-Jul-28 23:33N 35°27' E 139°46'6 6.3
2014-Jul-28 22:33N 35°22' E 139°43'5 5.0
2014-Jul-28 21:33N 35°17' E 139°41'0 0.0
2014-Jul-28 20:33N 35°17' E 139°41'0 0.0
2014-Jul-28 19:33N 35°17' E 139°41'0 0.0
2014-Jul-28 18:33N 35°17' E 139°41'0 0.0
2014-Jul-28 17:33N 35°17' E 139°41'0 0.0
2014-Jul-28 16:33N 35°17' E 139°41'0 0.0
2014-Jul-28 15:33N 35°17' E 139°41'0 0.0
2014-Jul-28 14:33N 35°17' E 139°41'0 0.0
2014-Jul-28 13:33N 35°17' E 139°41'0 0.0
2014-Jul-28 12:33N 35°17' E 139°41'0 0.0
2014-Jul-28 11:33N 35°17' E 139°41'0 0.0
2014-Jul-28 10:33N 35°17' E 139°41'0 0.0
2014-Jul-28 09:33N 35°17' E 139°41'0 0.0
2014-Jul-28 08:33N 35°17' E 139°41'0 0.0
2014-Jul-28 07:33N 35°17' E 139°41'0 0.0
2014-Jul-28 06:33N 35°17' E 139°41'0 0.0
2014-Jul-28 05:33N 35°17' E 139°41'0 0.0
2014-Jul-28 04:33N 35°17' E 139°41'0 0.0
2014-Jul-28 03:33N 35°17' E 139°41'6 6.0
2014-Jul-28 02:34N 35°13' E 139°46'1111.4
2014-Jul-28 01:33N 35°25' E 139°43'6 5.9
2014-Jul-28 00:33N 35°21' E 139°49'0 0.1
2014-Jul-27 23:33N 35°21' E 139°49'6 5.6
2014-Jul-27 22:34N 35°26' E 139°45'10 9.6
2014-Jul-27 21:33N 35°16' E 139°46'3 3.0
2014-Jul-27 20:34N 35°13' E 139°46'6 5.8
2014-Jul-27 19:33N 35°17' E 139°41'0 0.0
2014-Jul-27 18:33N 35°17' E 139°41'0 0.0
2014-Jul-27 17:34N 35°17' E 139°41'0 0.0
2014-Jul-27 16:33N 35°17' E 139°41'0 0.0
2014-Jul-27 15:34N 35°17' E 139°41'0 0.0
2014-Jul-27 14:34N 35°17' E 139°41'0 0.0
2014-Jul-27 13:34N 35°17' E 139°41'0 0.0
2014-Jul-27 12:34N 35°17' E 139°41'0 0.0
2014-Jul-27 11:33N 35°17' E 139°41'0 0.0
2014-Jul-27 10:33N 35°17' E 139°41'0 0.0
2014-Jul-27 09:34N 35°17' E 139°41'0 0.0
2014-Jul-27 08:33N 35°17' E 139°41'2 2.1
2014-Jul-27 07:34N 35°17' E 139°43'1 1.2
2014-Jul-27 06:33N 35°17' E 139°44'1010.3
2014-Jul-27 05:33N 35°27' E 139°48'9 8.6
2014-Jul-27 04:33N 35°29' E 139°58'0 0.4
2014-Jul-27 03:33N 35°29' E 139°58'10 9.9
2014-Jul-27 02:33N 35°23' E 139°48'8 8.5
2014-Jul-27 01:33N 35°17' E 139°41'0 0.0
2014-Jul-27 00:34N 35°17' E 139°41'0 0.0
2014-Jul-26 23:33N 35°17' E 139°41'0 0.0
2014-Jul-26 22:33N 35°17' E 139°41'0 0.0
2014-Jul-26 21:27N 35°17' E 139°41'0 0.0
2014-Jul-26 18:31N 35°17' E 139°41'0 0.0
2014-Jul-26 17:31N 35°17' E 139°41'0 0.1
2014-Jul-26 16:33N 35°17' E 139°41'0 0.0
2014-Jul-26 15:33N 35°17' E 139°41'0 0.0
2014-Jul-26 14:32N 35°17' E 139°41'0 0.1
2014-Jul-26 13:33N 35°17' E 139°41'0 0.0
2014-Jul-26 12:33N 35°17' E 139°41'0 0.0
2014-Jul-26 11:33N 35°17' E 139°41'0 0.0
2014-Jul-26 10:31N 35°17' E 139°41'0 0.0
2014-Jul-26 09:33N 35°17' E 139°41'0 0.0
2014-Jul-26 08:29N 35°17' E 139°41'0 0.2
2014-Jul-26 07:33N 35°17' E 139°41'5 5.0
2014-Jul-26 06:33N 35°15' E 139°46'1110.6
2014-Jul-26 05:34N 35°26' E 139°45'1211.9
2014-Jul-26 04:34N 35°32' E 139°57'7 6.7
2014-Jul-26 03:34N 35°35' E 140°04'0 0.4
2014-Jul-26 02:33N 35°35' E 140°05'0 0.1
2014-Jul-26 01:34N 35°35' E 140°04'2 2.0
2014-Jul-26 00:34N 35°33' E 140°05'2 2.1
2014-Jul-25 23:34N 35°33' E 140°03'1111.2
2014-Jul-25 22:33N 35°26' E 139°52'1110.9
2014-Jul-25 21:34N 35°18' E 139°43'2 2.1
2014-Jul-25 20:33N 35°17' E 139°41'0 0.0
2014-Jul-25 19:33N 35°17' E 139°41'0 0.0
2014-Jul-25 18:33N 35°17' E 139°41'0 0.0
2014-Jul-25 17:33N 35°17' E 139°41'0 0.0
2014-Jul-25 16:32N 35°17' E 139°41'0 0.0
2014-Jul-25 15:32N 35°17' E 139°41'0 0.0
2014-Jul-25 14:30N 35°17' E 139°41'0 0.0
2014-Jul-25 13:33N 35°17' E 139°41'0 0.0
2014-Jul-25 12:33N 35°17' E 139°41'0 0.0
2014-Jul-25 11:33N 35°17' E 139°41'0 0.0
2014-Jul-25 10:32N 35°17' E 139°41'0 0.0
2014-Jul-25 09:33N 35°17' E 139°41'0 0.0
2014-Jul-25 08:33N 35°17' E 139°41'2 1.7
2014-Jul-25 07:34N 35°19' E 139°42'2 1.7
2014-Jul-25 06:33N 35°19' E 139°39'2 0.6
2014-Jul-25 03:25N 35°17' E 139°41'5 5.8
2014-Jul-25 02:33N 35°14' E 139°46'8 8.0
2014-Jul-25 01:33N 35°22' E 139°42'9 8.9
2014-Jul-25 00:33N 35°30' E 139°47'0 0.5
2014-Jul-24 23:33N 35°30' E 139°47'5 4.7
2014-Jul-24 22:33N 35°26' E 139°44'9 9.0
2014-Jul-24 21:33N 35°17' E 139°41'0 0.0
2014-Jul-24 20:33N 35°17' E 139°41'0 0.0
2014-Jul-24 19:33N 35°17' E 139°41'0 0.0
2014-Jul-24 18:33N 35°17' E 139°41'0 0.0
2014-Jul-24 17:33N 35°17' E 139°41'0 0.0
2014-Jul-24 16:33N 35°17' E 139°41'0 0.0
2014-Jul-24 15:33N 35°17' E 139°41'0 0.0
2014-Jul-24 14:33N 35°17' E 139°41'0 0.0
2014-Jul-24 13:32N 35°17' E 139°41'0 0.0
2014-Jul-24 12:33N 35°17' E 139°41'0 0.0
2014-Jul-24 11:33N 35°17' E 139°41'0 0.0
2014-Jul-24 10:33N 35°17' E 139°41'0 0.0
2014-Jul-24 09:33N 35°17' E 139°41'0 0.0
2014-Jul-24 08:33N 35°17' E 139°41'0 0.0
2014-Jul-24 07:31N 35°17' E 139°41'0 0.2
2014-Jul-24 06:33N 35°17' E 139°41'0 0.1
2014-Jul-24 05:33N 35°17' E 139°41'0 0.2
2014-Jul-24 04:34N 35°17' E 139°41'3 3.0
2014-Jul-24 03:33N 35°19' E 139°43'10 9.9
2014-Jul-24 02:33N 35°10' E 139°47'4 4.2
2014-Jul-24 01:33N 35°13' E 139°44'5 4.5
2014-Jul-24 00:32N 35°17' E 139°41'0 0.0
2014-Jul-23 23:32N 35°17' E 139°41'0 0.0
2014-Jul-23 21:08N 35°17' E 139°41'0 0.0
2014-Jul-23 20:33N 35°17' E 139°41'0 0.0
2014-Jul-23 19:33N 35°17' E 139°41'0 0.0
2014-Jul-23 18:33N 35°17' E 139°41'0 0.0
2014-Jul-23 17:33N 35°17' E 139°41'0 0.0
2014-Jul-23 16:33N 35°17' E 139°41'0 0.0
2014-Jul-23 15:33N 35°17' E 139°41'0 0.0
2014-Jul-23 14:19N 35°17' E 139°41'0 0.0
2014-Jul-23 13:33N 35°17' E 139°41'0 0.0
2014-Jul-23 12:26N 35°17' E 139°41'0 0.0
2014-Jul-23 11:30N 35°17' E 139°41'0 0.0
2014-Jul-23 10:33N 35°17' E 139°41'0 0.0
2014-Jul-23 09:33N 35°17' E 139°41'0 0.0
2014-Jul-23 08:33N 35°17' E 139°41'0 0.0
2014-Jul-23 07:33N 35°17' E 139°41'0 0.0
2014-Jul-23 06:33N 35°17' E 139°41'0 0.0
2014-Jul-23 05:33N 35°17' E 139°41'0 0.0
2014-Jul-23 04:33N 35°17' E 139°41'0 0.0
2014-Jul-23 03:33N 35°17' E 139°41'0 0.0
2014-Jul-23 02:32N 35°17' E 139°41'0 0.0
2014-Jul-23 01:33N 35°17' E 139°41'0 0.0
2014-Jul-23 00:33N 35°17' E 139°41'4 3.6
2014-Jul-22 23:34N 35°18' E 139°45'7 6.8
2014-Jul-22 22:34N 35°11' E 139°47'2 2.5
2014-Jul-22 21:34N 35°13' E 139°45'8 8.5
2014-Jul-22 20:34N 35°21' E 139°42'4 4.4
2014-Jul-22 19:33N 35°17' E 139°44'4 3.7
2014-Jul-22 18:33N 35°13' E 139°43'0 0.0
2014-Jul-22 17:33N 35°13' E 139°43'0 0.0
2014-Jul-22 16:33N 35°13' E 139°43'0 0.0
2014-Jul-22 15:33N 35°13' E 139°43'0 0.0
2014-Jul-22 14:33N 35°13' E 139°43'3 2.9
2014-Jul-22 13:33N 35°14' E 139°46'1211.9
2014-Jul-22 12:33N 35°26' E 139°44'3 2.5
2014-Jul-22 11:33N 35°28' E 139°45'1010.2
2014-Jul-22 10:33N 35°18' E 139°42'1 1.3
2014-Jul-22 09:33N 35°17' E 139°41'0 0.0
2014-Jul-22 08:33N 35°17' E 139°41'2 2.0
2014-Jul-22 07:33N 35°19' E 139°42'2 2.0
2014-Jul-22 06:33N 35°17' E 139°41'9 9.1
2014-Jul-22 05:33N 35°26' E 139°43'1 0.9
2014-Jul-22 04:33N 35°27' E 139°43'0 0.0
2014-Jul-22 03:33N 35°27' E 139°43'2 1.5
2014-Jul-22 02:33N 35°26' E 139°44'6 6.3
2014-Jul-22 01:34N 35°20' E 139°44'10 9.9
2014-Jul-22 00:33N 35°10' E 139°47'8 8.4
2014-Jul-21 23:34N 35°17' E 139°41'1 0.8
2014-Jul-21 22:31N 35°17' E 139°41'0 0.0
2014-Jul-21 21:33N 35°17' E 139°41'0 0.0
2014-Jul-21 20:34N 35°17' E 139°41'0 0.0
2014-Jul-21 20:18N 35°17' E 139°41'0 0.0
2014-Jul-21 19:33N 35°17' E 139°41'0 0.0
2014-Jul-21 18:33N 35°17' E 139°41'0 0.0
2014-Jul-21 17:33N 35°17' E 139°41'0 0.0
2014-Jul-21 16:33N 35°17' E 139°41'0 0.0
2014-Jul-21 15:34N 35°17' E 139°41'0 0.0
2014-Jul-21 14:33N 35°17' E 139°41'0 0.0
2014-Jul-21 13:33N 35°17' E 139°41'0 0.0
2014-Jul-21 12:33N 35°17' E 139°41'0 0.0
2014-Jul-21 11:34N 35°17' E 139°41'0 0.0
2014-Jul-21 10:34N 35°17' E 139°41'0 0.0
2014-Jul-21 09:34N 35°17' E 139°41'0 0.0
2014-Jul-21 08:34N 35°17' E 139°41'0 0.0
2014-Jul-21 07:33N 35°17' E 139°41'0 0.0
2014-Jul-21 06:34N 35°17' E 139°41'0 0.0
2014-Jul-21 05:33N 35°17' E 139°41'0 0.0
2014-Jul-21 04:34N 35°17' E 139°41'0 0.0
2014-Jul-21 03:33N 35°17' E 139°41'0 0.0
2014-Jul-21 02:33N 35°17' E 139°41'5 5.4
2014-Jul-21 01:34N 35°15' E 139°46'1110.7
2014-Jul-21 00:34N 35°25' E 139°44'6 5.8
2014-Jul-20 23:33N 35°23' E 139°51'8 7.6
2014-Jul-20 22:33N 35°18' E 139°43'2 2.1
2014-Jul-20 21:25N 35°17' E 139°41'0 0.0
2014-Jul-20 16:16N 35°17' E 139°41'  
Track history (hours):
 
Tides and Currents Weather Stations Pressure Air Temp Water Temp Dewpoint Dewpoint Depression Visibility Wind Speed Wind Dir Waves Ship Positions

Uraga Maru

Last reported at 2014-Jul-30 14:31 UTC. Time now 2014-Jul-30 15:17 UTC.
Position N 35°17' E 139°41'.

Length 40 m; draft 2.8 m.

Type: Tug. MMSI: 431101119.

Date/timePositionNaut miles runAvg speedWind from/ knotsBaromVisibWave heightAir tempDewpointWater temp
2014-Jul-30 14:31N 35°17' E 139°41'0 0.0
2014-Jul-30 13:33N 35°17' E 139°41'0 0.0
2014-Jul-30 12:33N 35°17' E 139°41'0 0.0
2014-Jul-30 11:33N 35°17' E 139°41'0 0.0
2014-Jul-30 10:33N 35°17' E 139°41'0 0.0
2014-Jul-30 09:33N 35°17' E 139°41'0 0.0
2014-Jul-30 08:33N 35°17' E 139°41'0 0.0
2014-Jul-30 07:33N 35°17' E 139°41'0 0.0
2014-Jul-30 06:33N 35°17' E 139°41'5 5.5
2014-Jul-30 05:33N 35°14' E 139°46'9 9.0
2014-Jul-30 04:34N 35°22' E 139°42'1312.7
2014-Jul-30 03:33N 35°30' E 139°54'1 1.4
2014-Jul-30 02:33N 35°31' E 139°56'0 0.2
2014-Jul-30 01:33N 35°30' E 139°55'8 8.2
2014-Jul-30 00:33N 35°25' E 139°47'1211.7
2014-Jul-29 23:33N 35°14' E 139°47'3 3.2
2014-Jul-29 22:33N 35°13' E 139°43'0 0.1
2014-Jul-29 21:33N 35°13' E 139°43'7 6.7
2014-Jul-29 20:33N 35°20' E 139°42'2 2.1
2014-Jul-29 19:33N 35°18' E 139°42'1 1.2
2014-Jul-29 18:25N 35°17' E 139°41'0 0.0
2014-Jul-29 17:23N 35°17' E 139°41'0 0.0
2014-Jul-29 16:33N 35°17' E 139°41'0 0.0
2014-Jul-29 15:25N 35°17' E 139°41'0 0.0
2014-Jul-29 14:32N 35°17' E 139°41'0 0.0
2014-Jul-29 13:09N 35°17' E 139°41'0 0.1
2014-Jul-29 12:29N 35°17' E 139°41'0 0.0
2014-Jul-29 11:33N 35°17' E 139°41'0 0.0
2014-Jul-29 10:29N 35°17' E 139°41'0 0.0
2014-Jul-29 09:28N 35°17' E 139°41'0 0.0
2014-Jul-29 08:29N 35°17' E 139°41'0 0.1
2014-Jul-29 07:33N 35°17' E 139°41'0 0.0
2014-Jul-29 06:32N 35°17' E 139°41'3 2.9
2014-Jul-29 05:33N 35°20' E 139°41'4 4.1
2014-Jul-29 04:34N 35°23' E 139°39'6 6.4
2014-Jul-29 03:33N 35°17' E 139°41'1 1.2
2014-Jul-29 02:33N 35°18' E 139°42'7 6.5
2014-Jul-29 01:33N 35°12' E 139°46'1110.9
2014-Jul-29 00:33N 35°22' E 139°42'6 5.8
2014-Jul-28 23:33N 35°27' E 139°46'6 6.3
2014-Jul-28 22:33N 35°22' E 139°43'5 5.0
2014-Jul-28 21:33N 35°17' E 139°41'0 0.0
2014-Jul-28 20:33N 35°17' E 139°41'0 0.0
2014-Jul-28 19:33N 35°17' E 139°41'0 0.0
2014-Jul-28 18:33N 35°17' E 139°41'0 0.0
2014-Jul-28 17:33N 35°17' E 139°41'0 0.0
2014-Jul-28 16:33N 35°17' E 139°41'0 0.0
2014-Jul-28 15:33N 35°17' E 139°41'0 0.0
2014-Jul-28 14:33N 35°17' E 139°41'0 0.0
2014-Jul-28 13:33N 35°17' E 139°41'0 0.0
2014-Jul-28 12:33N 35°17' E 139°41'0 0.0
2014-Jul-28 11:33N 35°17' E 139°41'0 0.0
2014-Jul-28 10:33N 35°17' E 139°41'0 0.0
2014-Jul-28 09:33N 35°17' E 139°41'0 0.0
2014-Jul-28 08:33N 35°17' E 139°41'0 0.0
2014-Jul-28 07:33N 35°17' E 139°41'0 0.0
2014-Jul-28 06:33N 35°17' E 139°41'0 0.0
2014-Jul-28 05:33N 35°17' E 139°41'0 0.0
2014-Jul-28 04:33N 35°17' E 139°41'0 0.0
2014-Jul-28 03:33N 35°17' E 139°41'6 6.0
2014-Jul-28 02:34N 35°13' E 139°46'1111.4
2014-Jul-28 01:33N 35°25' E 139°43'6 5.9
2014-Jul-28 00:33N 35°21' E 139°49'0 0.1
2014-Jul-27 23:33N 35°21' E 139°49'6 5.6
2014-Jul-27 22:34N 35°26' E 139°45'10 9.6
2014-Jul-27 21:33N 35°16' E 139°46'3 3.0
2014-Jul-27 20:34N 35°13' E 139°46'6 5.8
2014-Jul-27 19:33N 35°17' E 139°41'0 0.0
2014-Jul-27 18:33N 35°17' E 139°41'0 0.0
2014-Jul-27 17:34N 35°17' E 139°41'0 0.0
2014-Jul-27 16:33N 35°17' E 139°41'0 0.0
2014-Jul-27 15:34N 35°17' E 139°41'0 0.0
2014-Jul-27 14:34N 35°17' E 139°41'0 0.0
2014-Jul-27 13:34N 35°17' E 139°41'0 0.0
2014-Jul-27 12:34N 35°17' E 139°41'0 0.0
2014-Jul-27 11:33N 35°17' E 139°41'0 0.0
2014-Jul-27 10:33N 35°17' E 139°41'0 0.0
2014-Jul-27 09:34N 35°17' E 139°41'0 0.0
2014-Jul-27 08:33N 35°17' E 139°41'2 2.1
2014-Jul-27 07:34N 35°17' E 139°43'1 1.2
2014-Jul-27 06:33N 35°17' E 139°44'1010.3
2014-Jul-27 05:33N 35°27' E 139°48'9 8.6
2014-Jul-27 04:33N 35°29' E 139°58'0 0.4
2014-Jul-27 03:33N 35°29' E 139°58'10 9.9
2014-Jul-27 02:33N 35°23' E 139°48'8 8.5
2014-Jul-27 01:33N 35°17' E 139°41'0 0.0
2014-Jul-27 00:34N 35°17' E 139°41'0 0.0
2014-Jul-26 23:33N 35°17' E 139°41'0 0.0
2014-Jul-26 22:33N 35°17' E 139°41'0 0.0
2014-Jul-26 21:27N 35°17' E 139°41'0 0.0
2014-Jul-26 18:31N 35°17' E 139°41'0 0.0
2014-Jul-26 17:31N 35°17' E 139°41'0 0.1
2014-Jul-26 16:33N 35°17' E 139°41'0 0.0
2014-Jul-26 15:33N 35°17' E 139°41'0 0.0
2014-Jul-26 14:32N 35°17' E 139°41'0 0.1
2014-Jul-26 13:33N 35°17' E 139°41'0 0.0
2014-Jul-26 12:33N 35°17' E 139°41'0 0.0
2014-Jul-26 11:33N 35°17' E 139°41'0 0.0
2014-Jul-26 10:31N 35°17' E 139°41'0 0.0
2014-Jul-26 09:33N 35°17' E 139°41'0 0.0
2014-Jul-26 08:29N 35°17' E 139°41'0 0.2
2014-Jul-26 07:33N 35°17' E 139°41'5 5.0
2014-Jul-26 06:33N 35°15' E 139°46'1110.6
2014-Jul-26 05:34N 35°26' E 139°45'1211.9
2014-Jul-26 04:34N 35°32' E 139°57'7 6.7
2014-Jul-26 03:34N 35°35' E 140°04'0 0.4
2014-Jul-26 02:33N 35°35' E 140°05'0 0.1
2014-Jul-26 01:34N 35°35' E 140°04'2 2.0
2014-Jul-26 00:34N 35°33' E 140°05'2 2.1
2014-Jul-25 23:34N 35°33' E 140°03'1111.2
2014-Jul-25 22:33N 35°26' E 139°52'1110.9
2014-Jul-25 21:34N 35°18' E 139°43'2 2.1
2014-Jul-25 20:33N 35°17' E 139°41'0 0.0
2014-Jul-25 19:33N 35°17' E 139°41'0 0.0
2014-Jul-25 18:33N 35°17' E 139°41'0 0.0
2014-Jul-25 17:33N 35°17' E 139°41'0 0.0
2014-Jul-25 16:32N 35°17' E 139°41'0 0.0
2014-Jul-25 15:32N 35°17' E 139°41'0 0.0
2014-Jul-25 14:30N 35°17' E 139°41'0 0.0
2014-Jul-25 13:33N 35°17' E 139°41'0 0.0
2014-Jul-25 12:33N 35°17' E 139°41'0 0.0
2014-Jul-25 11:33N 35°17' E 139°41'0 0.0
2014-Jul-25 10:32N 35°17' E 139°41'0 0.0
2014-Jul-25 09:33N 35°17' E 139°41'0 0.0
2014-Jul-25 08:33N 35°17' E 139°41'2 1.7
2014-Jul-25 07:34N 35°19' E 139°42'2 1.7
2014-Jul-25 06:33N 35°19' E 139°39'2 0.6
2014-Jul-25 03:25N 35°17' E 139°41'5 5.8
2014-Jul-25 02:33N 35°14' E 139°46'8 8.0
2014-Jul-25 01:33N 35°22' E 139°42'9 8.9
2014-Jul-25 00:33N 35°30' E 139°47'0 0.5
2014-Jul-24 23:33N 35°30' E 139°47'5 4.7
2014-Jul-24 22:33N 35°26' E 139°44'9 9.0
2014-Jul-24 21:33N 35°17' E 139°41'0 0.0
2014-Jul-24 20:33N 35°17' E 139°41'0 0.0
2014-Jul-24 19:33N 35°17' E 139°41'0 0.0
2014-Jul-24 18:33N 35°17' E 139°41'0 0.0
2014-Jul-24 17:33N 35°17' E 139°41'0 0.0
2014-Jul-24 16:33N 35°17' E 139°41'0 0.0
2014-Jul-24 15:33N 35°17' E 139°41'0 0.0
2014-Jul-24 14:33N 35°17' E 139°41'0 0.0
2014-Jul-24 13:32N 35°17' E 139°41'0 0.0
2014-Jul-24 12:33N 35°17' E 139°41'0 0.0
2014-Jul-24 11:33N 35°17' E 139°41'0 0.0
2014-Jul-24 10:33N 35°17' E 139°41'0 0.0
2014-Jul-24 09:33N 35°17' E 139°41'0 0.0
2014-Jul-24 08:33N 35°17' E 139°41'0 0.0
2014-Jul-24 07:31N 35°17' E 139°41'0 0.2
2014-Jul-24 06:33N 35°17' E 139°41'0 0.1
2014-Jul-24 05:33N 35°17' E 139°41'0 0.2
2014-Jul-24 04:34N 35°17' E 139°41'3 3.0
2014-Jul-24 03:33N 35°19' E 139°43'10 9.9
2014-Jul-24 02:33N 35°10' E 139°47'4 4.2
2014-Jul-24 01:33N 35°13' E 139°44'5 4.5
2014-Jul-24 00:32N 35°17' E 139°41'0 0.0
2014-Jul-23 23:32N 35°17' E 139°41'0 0.0
2014-Jul-23 21:08N 35°17' E 139°41'0 0.0
2014-Jul-23 20:33N 35°17' E 139°41'0 0.0
2014-Jul-23 19:33N 35°17' E 139°41'0 0.0
2014-Jul-23 18:33N 35°17' E 139°41'0 0.0
2014-Jul-23 17:33N 35°17' E 139°41'0 0.0
2014-Jul-23 16:33N 35°17' E 139°41'0 0.0
2014-Jul-23 15:33N 35°17' E 139°41'0 0.0
2014-Jul-23 14:19N 35°17' E 139°41'0 0.0
2014-Jul-23 13:33N 35°17' E 139°41'0 0.0
2014-Jul-23 12:26N 35°17' E 139°41'0 0.0
2014-Jul-23 11:30N 35°17' E 139°41'0 0.0
2014-Jul-23 10:33N 35°17' E 139°41'0 0.0
2014-Jul-23 09:33N 35°17' E 139°41'0 0.0
2014-Jul-23 08:33N 35°17' E 139°41'0 0.0
2014-Jul-23 07:33N 35°17' E 139°41'0 0.0
2014-Jul-23 06:33N 35°17' E 139°41'0 0.0
2014-Jul-23 05:33N 35°17' E 139°41'0 0.0
2014-Jul-23 04:33N 35°17' E 139°41'0 0.0
2014-Jul-23 03:33N 35°17' E 139°41'0 0.0
2014-Jul-23 02:32N 35°17' E 139°41'0 0.0
2014-Jul-23 01:33N 35°17' E 139°41'0 0.0
2014-Jul-23 00:33N 35°17' E 139°41'4 3.6
2014-Jul-22 23:34N 35°18' E 139°45'7 6.8
2014-Jul-22 22:34N 35°11' E 139°47'2 2.5
2014-Jul-22 21:34N 35°13' E 139°45'8 8.5
2014-Jul-22 20:34N 35°21' E 139°42'4 4.4
2014-Jul-22 19:33N 35°17' E 139°44'4 3.7
2014-Jul-22 18:33N 35°13' E 139°43'0 0.0
2014-Jul-22 17:33N 35°13' E 139°43'0 0.0
2014-Jul-22 16:33N 35°13' E 139°43'0 0.0
2014-Jul-22 15:33N 35°13' E 139°43'0 0.0
2014-Jul-22 14:33N 35°13' E 139°43'3 2.9
2014-Jul-22 13:33N 35°14' E 139°46'1211.9
2014-Jul-22 12:33N 35°26' E 139°44'3 2.5
2014-Jul-22 11:33N 35°28' E 139°45'1010.2
2014-Jul-22 10:33N 35°18' E 139°42'1 1.3
2014-Jul-22 09:33N 35°17' E 139°41'0 0.0
2014-Jul-22 08:33N 35°17' E 139°41'2 2.0
2014-Jul-22 07:33N 35°19' E 139°42'2 2.0
2014-Jul-22 06:33N 35°17' E 139°41'9 9.1
2014-Jul-22 05:33N 35°26' E 139°43'1 0.9
2014-Jul-22 04:33N 35°27' E 139°43'0 0.0
2014-Jul-22 03:33N 35°27' E 139°43'2 1.5
2014-Jul-22 02:33N 35°26' E 139°44'6 6.3
2014-Jul-22 01:34N 35°20' E 139°44'10 9.9
2014-Jul-22 00:33N 35°10' E 139°47'8 8.4
2014-Jul-21 23:34N 35°17' E 139°41'1 0.8
2014-Jul-21 22:31N 35°17' E 139°41'0 0.0
2014-Jul-21 21:33N 35°17' E 139°41'0 0.0
2014-Jul-21 20:34N 35°17' E 139°41'0 0.0
2014-Jul-21 20:18N 35°17' E 139°41'0 0.0
2014-Jul-21 19:33N 35°17' E 139°41'0 0.0
2014-Jul-21 18:33N 35°17' E 139°41'0 0.0
2014-Jul-21 17:33N 35°17' E 139°41'0 0.0
2014-Jul-21 16:33N 35°17' E 139°41'0 0.0
2014-Jul-21 15:34N 35°17' E 139°41'0 0.0
2014-Jul-21 14:33N 35°17' E 139°41'0 0.0
2014-Jul-21 13:33N 35°17' E 139°41'0 0.0
2014-Jul-21 12:33N 35°17' E 139°41'0 0.0
2014-Jul-21 11:34N 35°17' E 139°41'0 0.0
2014-Jul-21 10:34N 35°17' E 139°41'0 0.0
2014-Jul-21 09:34N 35°17' E 139°41'0 0.0
2014-Jul-21 08:34N 35°17' E 139°41'0 0.0
2014-Jul-21 07:33N 35°17' E 139°41'0 0.0
2014-Jul-21 06:34N 35°17' E 139°41'0 0.0
2014-Jul-21 05:33N 35°17' E 139°41'0 0.0
2014-Jul-21 04:34N 35°17' E 139°41'0 0.0
2014-Jul-21 03:33N 35°17' E 139°41'0 0.0
2014-Jul-21 02:33N 35°17' E 139°41'5 5.4
2014-Jul-21 01:34N 35°15' E 139°46'1110.7
2014-Jul-21 00:34N 35°25' E 139°44'6 5.8
2014-Jul-20 23:33N 35°23' E 139°51'8 7.6
2014-Jul-20 22:33N 35°18' E 139°43'2 2.1
2014-Jul-20 21:25N 35°17' E 139°41'0 0.0
2014-Jul-20 16:16N 35°17' E 139°41'  

Dump ship's entire track history